Time;durP1;ratioP1;P1;durP2;ratioP2;P2;SDS_P1;SDS_P2;PMS_P1;PMS_P2;Temp;Humidity;BMP_temperature;BMP_pressure;BME280_temperature;BME280_humidity;BME280_pressure;Samples;Min_cycle;Max_cycle;Signal;HPM_P1;HPM_P2
2023/05/18 00:02:07;;;;;;;;;;;;;;;26.06;30.48;98677.41;5071970;28;20379;-92
2023/05/18 00:04:33;;;;;;;;;;;;;;;26.07;30.33;98676.16;5080347;28;20273;-92
2023/05/18 00:07:03;;;;;;;;;;;;;;;26.29;30.34;98673.75;5067705;28;19925;-93
2023/05/18 00:09:30;;;;;;;;;;;;;;;26.48;29.51;98672.91;5075043;28;19920;-92
2023/05/18 00:11:57;;;;;;;;;;;;;;;26.20;30.70;98678.38;5066861;28;19943;-92
2023/05/18 00:14:23;;;;;;;;;;;;;;;26.37;29.96;98682.84;5089494;28;19916;-92
2023/05/18 00:16:49;;;;;;;;;;;;;;;26.19;30.19;98673.94;5084657;28;19956;-92
2023/05/18 00:19:15;;;;;;;;;;;;;;;26.25;29.67;98680.69;5074074;28;20421;-94
2023/05/18 00:21:42;;;;;;;;;;;;;;;25.97;30.92;98673.59;5073567;28;19916;-92
2023/05/18 00:24:09;;;;;;;;;;;;;;;26.13;30.53;98670.06;5070261;28;19929;-92
2023/05/18 00:26:36;;;;;;;;;;;;;;;26.16;30.05;98669.22;5055985;28;19964;-91
2023/05/18 00:29:02;;;;;;;;;;;;;;;26.22;30.06;98670.28;5074370;28;19956;-91
2023/05/18 00:31:28;;;;;;;;;;;;;;;25.98;30.55;98672.34;5071407;28;19924;-91
2023/05/18 00:33:54;;;;;;;;;;;;;;;26.18;30.61;98673.19;5074032;28;19916;-92
2023/05/18 00:36:20;;;;;;;;;;;;;;;26.56;30.23;98676.34;5072133;28;20300;-91
2023/05/18 00:38:46;;;;;;;;;;;;;;;26.71;30.04;98674.81;5068564;28;19939;-92
2023/05/18 00:41:12;;;;;;;;;;;;;;;26.95;29.77;98667.84;5054687;28;20018;-93
2023/05/18 00:43:40;;;;;;;;;;;;;;;27.13;29.04;98665.34;5087133;28;21671;-93
2023/05/18 00:46:06;;;;;;;;;;;;;;;26.99;28.72;98670.53;5005218;28;1846357;-95
2023/05/18 00:48:32;;;;;;;;;;;;;;;26.45;29.85;98661.72;5086260;28;19920;-96
2023/05/18 00:50:58;;;;;;;;;;;;;;;26.51;29.52;98665.63;5052913;28;20265;-96
2023/05/18 00:53:24;;;;;;;;;;;;;;;26.03;30.66;98667.00;5071446;28;19932;-96
2023/05/18 00:55:53;;;;;;;;;;;;;;;26.05;30.21;98663.75;5073642;28;19998;-96
2023/05/18 00:58:19;;;;;;;;;;;;;;;26.09;30.34;98665.25;5078222;28;20010;-96
2023/05/18 01:00:45;;;;;;;;;;;;;;;25.91;30.91;98670.47;5084840;28;19931;-96
2023/05/18 01:03:13;;;;;;;;;;;;;;;25.87;30.75;98671.78;5080306;28;19966;-96
2023/05/18 01:05:40;;;;;;;;;;;;;;;25.74;30.84;98676.47;5083563;28;20368;-96
2023/05/18 01:08:06;;;;;;;;;;;;;;;25.91;30.98;98670.47;5075086;28;19924;-96
2023/05/18 01:10:35;;;;;;;;;;;;;;;25.89;30.66;98678.56;5075573;28;19925;-96
2023/05/18 01:13:08;;;;;;;;;;;;;;;26.00;30.51;98670.69;5075414;28;19927;-96
2023/05/18 01:15:36;;;;;;;;;;;;;;;26.14;30.70;98682.94;5077998;28;20006;-96
2023/05/18 01:18:13;;;;;;;;;;;;;;;26.12;30.09;98677.72;5066414;28;20023;-96
2023/05/18 01:20:45;;;;;;;;;;;;;;;26.22;29.89;98679.53;5068036;28;19920;-96
2023/05/18 01:23:28;;;;;;;;;;;;;;;26.13;30.18;98676.50;5066381;28;19921;-95
2023/05/18 01:25:54;;;;;;;;;;;;;;;26.42;30.26;98682.31;5063153;28;19955;-95
2023/05/18 01:28:25;;;;;;;;;;;;;;;26.57;30.02;98686.41;5069776;28;19920;-95
2023/05/18 01:30:51;;;;;;;;;;;;;;;26.76;30.05;98684.78;5052447;28;19921;-93
2023/05/18 01:33:17;;;;;;;;;;;;;;;26.88;29.62;98679.28;5063968;28;19999;-95
2023/05/18 01:35:49;;;;;;;;;;;;;;;26.90;29.09;98690.09;5057508;28;19959;-93
2023/05/18 01:38:19;;;;;;;;;;;;;;;26.56;29.45;98690.44;5064895;28;19932;-92
2023/05/18 01:40:48;;;;;;;;;;;;;;;26.56;29.27;98691.22;5067074;28;20442;-92
2023/05/18 01:43:17;;;;;;;;;;;;;;;26.59;29.26;98690.38;5066574;28;19920;-91
2023/05/18 01:45:45;;;;;;;;;;;;;;;26.34;29.62;98689.31;5072774;28;19975;-90
2023/05/18 01:48:15;;;;;;;;;;;;;;;25.83;30.42;98696.38;5070241;28;19920;-90
2023/05/18 01:50:45;;;;;;;;;;;;;;;26.23;30.32;98695.19;5078708;28;19967;-90
2023/05/18 01:53:15;;;;;;;;;;;;;;;26.27;29.90;98695.09;5072326;28;20006;-89
2023/05/18 01:55:42;;;;;;;;;;;;;;;26.47;29.97;98695.88;5073049;28;20337;-89
2023/05/18 01:58:10;;;;;;;;;;;;;;;26.77;29.08;98703.28;5076628;28;20323;-89
2023/05/18 02:00:36;;;;;;;;;;;;;;;26.44;29.74;98705.97;5074503;28;20361;-89
2023/05/18 02:03:02;;;;;;;;;;;;;;;26.46;30.08;98702.75;5073009;28;19920;-89
2023/05/18 02:05:28;;;;;;;;;;;;;;;26.58;28.82;98700.03;5066520;28;19994;-89
2023/05/18 02:07:54;;;;;;;;;;;;;;;26.22;29.92;98699.22;5059979;28;19921;-89
2023/05/18 02:10:20;;;;;;;;;;;;;;;26.17;29.88;98704.56;5080518;28;19925;-89
2023/05/18 02:12:51;;;;;;;;;;;;;;;26.48;29.74;98701.09;5070308;28;19923;-89
2023/05/18 02:15:17;;;;;;;;;;;;;;;26.85;29.34;98704.69;5093229;28;20438;-89
2023/05/18 02:17:43;;;;;;;;;;;;;;;26.95;29.02;98703.66;5085611;28;19921;-89
2023/05/18 02:20:09;;;;;;;;;;;;;;;26.82;28.24;98697.13;5071624;28;20004;-89
2023/05/18 02:22:36;;;;;;;;;;;;;;;26.40;29.54;98694.00;5073535;28;19924;-89
2023/05/18 02:25:03;;;;;;;;;;;;;;;26.35;29.13;98699.38;5063584;28;19932;-89
2023/05/18 02:27:30;;;;;;;;;;;;;;;26.45;29.01;98704.75;5070524;28;19920;-89
2023/05/18 02:29:56;;;;;;;;;;;;;;;26.24;29.46;98701.59;5065327;28;19920;-89
2023/05/18 02:32:22;;;;;;;;;;;;;;;26.21;29.49;98700.44;5064448;28;19924;-89
2023/05/18 02:34:51;;;;;;;;;;;;;;;26.29;29.51;98707.53;5073074;28;19928;-89
2023/05/18 02:37:18;;;;;;;;;;;;;;;25.72;30.49;98713.44;5053626;28;20441;-89
2023/05/18 02:39:44;;;;;;;;;;;;;;;25.84;30.24;98712.00;5070223;28;19932;-89
2023/05/18 02:42:10;;;;;;;;;;;;;;;26.06;29.63;98705.56;5072307;28;19917;-89
2023/05/18 02:44:36;;;;;;;;;;;;;;;25.80;30.76;98705.66;5072299;28;19920;-89
2023/05/18 02:47:02;;;;;;;;;;;;;;;25.96;29.67;98714.19;5059680;28;19927;-89
2023/05/18 02:49:28;;;;;;;;;;;;;;;26.05;30.02;98709.59;5073822;28;20006;-89
2023/05/18 02:51:54;;;;;;;;;;;;;;;26.35;29.04;98716.25;5072441;28;19921;-89
2023/05/18 02:54:20;;;;;;;;;;;;;;;26.07;29.15;98711.97;5065095;28;19970;-89
2023/05/18 02:56:47;;;;;;;;;;;;;;;24.11;32.63;98725.09;5069302;28;19920;-89
2023/05/18 02:59:14;;;;;;;;;;;;;;;23.21;34.33;98729.13;5077172;28;19924;-89
2023/05/18 03:01:40;;;;;;;;;;;;;;;23.99;33.03;98729.97;5083442;28;19956;-89
2023/05/18 03:04:06;;;;;;;;;;;;;;;25.01;31.49;98724.28;5066838;28;20038;-89
2023/05/18 03:06:32;;;;;;;;;;;;;;;25.55;30.36;98727.84;5067959;28;19940;-89
2023/05/18 03:08:58;;;;;;;;;;;;;;;25.69;30.08;98728.38;5092374;28;20391;-89
2023/05/18 03:11:25;;;;;;;;;;;;;;;25.97;30.29;98733.47;5072483;28;19924;-89
2023/05/18 03:13:51;;;;;;;;;;;;;;;26.26;30.15;98728.09;5055328;28;20031;-89
2023/05/18 03:16:17;;;;;;;;;;;;;;;26.56;29.10;98736.28;5068073;28;19917;-89
2023/05/18 03:18:43;;;;;;;;;;;;;;;26.52;29.07;98735.59;5069860;28;19927;-89
2023/05/18 03:21:12;;;;;;;;;;;;;;;26.50;29.59;98738.03;5066086;28;19921;-89
2023/05/18 03:23:38;;;;;;;;;;;;;;;26.55;29.40;98739.56;5066108;28;19928;-89
2023/05/18 03:26:10;;;;;;;;;;;;;;;26.56;28.79;98741.13;5080381;28;19927;-89
2023/05/18 03:28:37;;;;;;;;;;;;;;;26.15;29.29;98744.41;5067340;28;19930;-89
2023/05/18 03:31:03;;;;;;;;;;;;;;;25.61;30.24;98746.59;5065142;28;19927;-89
2023/05/18 03:33:29;;;;;;;;;;;;;;;25.15;31.35;98754.97;5057307;28;20276;-89
2023/05/18 03:35:55;;;;;;;;;;;;;;;25.20;30.84;98751.69;5066779;28;19921;-89
2023/05/18 03:38:21;;;;;;;;;;;;;;;24.61;31.71;98759.72;5068662;28;19920;-89
2023/05/18 03:40:47;;;;;;;;;;;;;;;25.19;31.09;98759.31;5079290;28;20296;-89
2023/05/18 03:43:13;;;;;;;;;;;;;;;25.29;30.78;98760.38;5067114;28;19920;-89
2023/05/18 03:45:39;;;;;;;;;;;;;;;23.04;35.58;98767.25;5071838;28;19924;-88
2023/05/18 03:48:05;;;;;;;;;;;;;;;23.13;35.48;98767.59;5074271;28;19932;-89
2023/05/18 03:50:31;;;;;;;;;;;;;;;22.09;36.87;98770.50;5074582;28;19920;-89
2023/05/18 03:52:57;;;;;;;;;;;;;;;23.58;33.93;98776.88;5048351;28;20315;-89
2023/05/18 03:55:23;;;;;;;;;;;;;;;24.56;31.76;98786.25;5069900;28;20341;-89
2023/05/18 03:57:49;;;;;;;;;;;;;;;24.27;32.11;98778.63;5065864;28;20423;-89
2023/05/18 04:00:15;;;;;;;;;;;;;;;24.88;31.43;98785.09;5068735;28;19998;-89
2023/05/18 04:02:41;;;;;;;;;;;;;;;24.36;32.40;98781.72;5065799;28;19920;-90
2023/05/18 04:05:08;;;;;;;;;;;;;;;23.76;33.11;98782.31;5068772;28;19921;-89
2023/05/18 04:07:42;;;;;;;;;;;;;;;22.89;35.41;98793.78;5069673;28;20015;-89
2023/05/18 04:10:10;;;;;;;;;;;;;;;22.80;35.31;98801.03;5065352;28;19920;-90
2023/05/18 04:12:37;;;;;;;;;;;;;;;21.51;38.58;98798.13;5068256;28;20392;-89
2023/05/18 04:15:03;;;;;;;;;;;;;;;21.64;37.64;98804.88;5064346;28;19917;-93
2023/05/18 04:17:29;;;;;;;;;;;;;;;22.00;36.84;98804.50;5055379;28;19920;-93
2023/05/18 04:19:58;;;;;;;;;;;;;;;21.74;37.47;98815.28;5060174;28;20365;-91
2023/05/18 04:22:24;;;;;;;;;;;;;;;22.56;35.96;98811.09;5065730;28;20358;-90
2023/05/18 04:24:53;;;;;;;;;;;;;;;19.32;43.48;98822.16;5064569;28;20359;-91
2023/05/18 04:27:21;;;;;;;;;;;;;;;19.19;43.07;98829.97;5068596;28;19956;-93
2023/05/18 04:29:48;;;;;;;;;;;;;;;17.98;44.77;98830.84;5070322;28;19921;-90
2023/05/18 04:32:17;;;;;;;;;;;;;;;17.51;45.99;98836.84;5070439;28;19924;-92
2023/05/18 04:34:43;;;;;;;;;;;;;;;17.52;46.25;98844.03;5063159;28;20327;-90
2023/05/18 04:37:09;;;;;;;;;;;;;;;17.39;46.70;98850.91;5067194;28;19920;-89
2023/05/18 04:39:38;;;;;;;;;;;;;;;17.09;47.27;98850.78;5040911;28;20441;-90
2023/05/18 04:42:04;;;;;;;;;;;;;;;16.18;48.70;98861.56;5048670;28;19920;-87
2023/05/18 04:44:32;;;;;;;;;;;;;;;16.17;48.17;98859.97;5061723;28;20292;-89
2023/05/18 04:46:59;;;;;;;;;;;;;;;17.15;46.24;98866.75;5067353;28;19921;-86
2023/05/18 04:49:27;;;;;;;;;;;;;;;17.24;43.09;98856.22;5062953;28;20027;-86
2023/05/18 04:51:58;;;;;;;;;;;;;;;16.66;46.72;98857.50;5061812;28;19920;-88
2023/05/18 04:54:24;;;;;;;;;;;;;;;18.73;40.12;98850.97;5061772;28;20277;-87
2023/05/18 04:56:51;;;;;;;;;;;;;;;19.91;38.05;98860.88;5074692;28;19925;-84
2023/05/18 04:59:17;;;;;;;;;;;;;;;18.53;39.61;98861.44;5066301;28;20400;-88
2023/05/18 05:01:44;;;;;;;;;;;;;;;18.16;40.04;98862.47;5073846;28;19917;-86
2023/05/18 05:04:10;;;;;;;;;;;;;;;18.14;41.50;98865.63;5074199;28;19917;-87
2023/05/18 05:06:36;;;;;;;;;;;;;;;17.81;41.55;98865.50;5073857;28;19960;-86
2023/05/18 05:09:02;;;;;;;;;;;;;;;17.79;41.48;98859.53;5073907;28;19920;-87
2023/05/18 05:11:28;;;;;;;;;;;;;;;16.81;43.81;98867.69;5073792;28;20015;-86
2023/05/18 05:13:54;;;;;;;;;;;;;;;17.11;43.93;98871.44;5073862;28;19924;-86
2023/05/18 05:16:20;;;;;;;;;;;;;;;17.93;39.99;98866.13;5072776;28;19916;-87
2023/05/18 05:18:46;;;;;;;;;;;;;;;18.28;40.45;98865.84;5062783;28;20379;-86
2023/05/18 05:21:12;;;;;;;;;;;;;;;19.72;38.13;98868.69;5073367;28;19916;-87
2023/05/18 05:23:40;;;;;;;;;;;;;;;21.36;33.51;98864.34;5077770;28;19939;-87
2023/05/18 05:26:06;;;;;;;;;;;;;;;21.69;32.76;98874.34;5070745;28;19998;-87
2023/05/18 05:28:31;;;;;;;;;;;;;;;22.81;30.43;98875.41;5064105;28;19939;-87
2023/05/18 05:30:57;;;;;;;;;;;;;;;23.23;30.98;98875.19;5062339;28;20011;-87
2023/05/18 05:33:23;;;;;;;;;;;;;;;23.09;30.74;98866.88;5063672;28;19920;-86
2023/05/18 05:35:50;;;;;;;;;;;;;;;23.70;29.40;98879.31;5072300;28;19968;-86
2023/05/18 05:38:16;;;;;;;;;;;;;;;24.58;28.28;98875.69;5072807;28;19931;-86
2023/05/18 05:40:42;;;;;;;;;;;;;;;24.48;28.40;98876.63;5072532;28;19950;-86
2023/05/18 05:43:08;;;;;;;;;;;;;;;24.22;28.34;98880.91;5073775;28;19934;-86
2023/05/18 05:45:34;;;;;;;;;;;;;;;24.10;28.47;98880.59;5073475;28;19942;-87
2023/05/18 05:48:00;;;;;;;;;;;;;;;23.56;29.60;98885.81;5073491;28;20330;-87
2023/05/18 05:50:26;;;;;;;;;;;;;;;23.70;30.11;98891.34;5073621;28;20007;-86
2023/05/18 05:52:52;;;;;;;;;;;;;;;23.71;29.13;98887.31;5072223;28;20351;-86
2023/05/18 05:55:18;;;;;;;;;;;;;;;23.90;29.56;98902.78;5073780;28;19917;-86
2023/05/18 05:57:44;;;;;;;;;;;;;;;23.75;29.53;98895.69;5073927;28;19973;-87
2023/05/18 06:00:11;;;;;;;;;;;;;;;23.74;30.43;98897.69;5087216;28;19920;-86
2023/05/18 06:02:38;;;;;;;;;;;;;;;23.95;30.17;98896.72;5074332;28;19929;-86
2023/05/18 06:05:07;;;;;;;;;;;;;;;24.44;28.92;98892.69;5073299;28;19917;-86
2023/05/18 06:07:33;;;;;;;;;;;;;;;24.58;28.87;98904.56;5072004;28;20490;-87
2023/05/18 06:09:59;;;;;;;;;;;;;;;24.30;29.53;98904.84;5075139;28;20313;-86
2023/05/18 06:12:25;;;;;;;;;;;;;;;24.89;28.03;98905.44;5087734;28;20058;-86
2023/05/18 06:14:56;;;;;;;;;;;;;;;25.00;28.34;98908.91;5084920;28;19927;-86
2023/05/18 06:17:23;;;;;;;;;;;;;;;24.83;28.75;98912.75;5065578;28;19921;-87
2023/05/18 06:19:49;;;;;;;;;;;;;;;24.53;28.61;98910.63;5078507;28;20290;-86
2023/05/18 06:22:15;;;;;;;;;;;;;;;24.98;28.45;98913.38;5083630;28;19926;-86
2023/05/18 06:24:41;;;;;;;;;;;;;;;24.74;28.80;98918.81;5090790;28;19961;-87
2023/05/18 06:27:07;;;;;;;;;;;;;;;25.39;27.01;98926.06;5075724;28;19920;-86
2023/05/18 06:29:33;;;;;;;;;;;;;;;24.68;28.94;98922.53;5072718;28;19925;-86
2023/05/18 06:31:59;;;;;;;;;;;;;;;25.02;27.75;98928.97;5081021;28;20425;-86
2023/05/18 06:34:25;;;;;;;;;;;;;;;25.11;28.28;98922.84;5073850;28;19947;-87
2023/05/18 06:36:51;;;;;;;;;;;;;;;24.93;28.81;98934.28;5072025;28;20380;-86
2023/05/18 06:39:17;;;;;;;;;;;;;;;25.08;28.07;98926.50;5056625;28;20028;-86
2023/05/18 06:41:44;;;;;;;;;;;;;;;24.47;29.54;98946.00;5070246;28;19921;-86
2023/05/18 06:44:10;;;;;;;;;;;;;;;24.60;30.62;98943.44;5072469;28;19921;-86
2023/05/18 06:46:37;;;;;;;;;;;;;;;24.93;29.41;98936.28;5068834;28;19966;-86
2023/05/18 06:49:03;;;;;;;;;;;;;;;25.33;29.42;98941.81;5076626;28;19920;-87
2023/05/18 06:51:30;;;;;;;;;;;;;;;25.09;29.21;98948.53;5074122;28;19936;-87
2023/05/18 06:53:56;;;;;;;;;;;;;;;25.49;28.13;98944.03;5073139;28;19925;-87
2023/05/18 06:56:22;;;;;;;;;;;;;;;24.86;29.06;98942.00;5063884;28;19991;-87
2023/05/18 06:58:48;;;;;;;;;;;;;;;25.01;27.65;98943.44;5074886;28;19916;-87
2023/05/18 07:01:16;;;;;;;;;;;;;;;24.25;28.07;98950.22;5073045;28;19925;-87
2023/05/18 07:03:42;;;;;;;;;;;;;;;23.14;29.92;98956.09;5075476;28;20300;-86
2023/05/18 07:06:09;;;;;;;;;;;;;;;23.93;29.40;98960.88;5074285;28;19917;-86
2023/05/18 07:08:35;;;;;;;;;;;;;;;24.42;27.73;98954.06;5076105;28;19928;-87
2023/05/18 07:11:02;;;;;;;;;;;;;;;25.03;28.82;98950.22;5073137;28;20346;-86
2023/05/18 07:13:28;;;;;;;;;;;;;;;24.52;27.54;98948.38;5081822;28;20053;-86
2023/05/18 07:15:54;;;;;;;;;;;;;;;24.57;27.63;98949.91;5073820;28;19917;-87
2023/05/18 07:18:20;;;;;;;;;;;;;;;24.25;29.92;98947.41;5066955;28;19960;-87
2023/05/18 07:20:46;;;;;;;;;;;;;;;24.38;28.30;98956.13;5075514;28;19925;-86
2023/05/18 07:23:12;;;;;;;;;;;;;;;23.40;29.92;98957.59;5075686;28;19912;-87
2023/05/18 07:25:38;;;;;;;;;;;;;;;23.01;30.19;98963.34;5074649;28;19974;-86
2023/05/18 07:28:04;;;;;;;;;;;;;;;23.02;31.15;98964.94;5075110;28;19916;-87
2023/05/18 07:30:30;;;;;;;;;;;;;;;23.41;30.59;98962.78;5071988;28;20449;-86
2023/05/18 07:32:57;;;;;;;;;;;;;;;24.04;29.41;98968.00;5085786;28;20371;-87
2023/05/18 07:35:25;;;;;;;;;;;;;;;24.03;29.85;98966.41;5085629;28;20387;-86
2023/05/18 07:37:51;;;;;;;;;;;;;;;24.45;28.75;98967.28;5062020;28;19955;-87
2023/05/18 07:40:17;;;;;;;;;;;;;;;24.27;29.25;98964.63;5068891;28;20380;-87
2023/05/18 07:42:43;;;;;;;;;;;;;;;23.96;30.88;98972.06;5075096;28;19921;-87
2023/05/18 07:45:09;;;;;;;;;;;;;;;24.62;28.86;98975.50;5073531;28;19920;-86
2023/05/18 07:47:35;;;;;;;;;;;;;;;24.69;28.84;98969.06;5073548;28;20183;-87
2023/05/18 07:50:01;;;;;;;;;;;;;;;23.58;30.17;98975.13;5074050;28;19982;-86
2023/05/18 07:52:27;;;;;;;;;;;;;;;23.19;31.61;98978.09;5073152;28;19916;-87
2023/05/18 07:54:54;;;;;;;;;;;;;;;23.56;30.84;98978.34;5073513;28;19967;-87
2023/05/18 07:57:20;;;;;;;;;;;;;;;24.16;29.45;98972.34;5074962;28;19966;-87
2023/05/18 07:59:46;;;;;;;;;;;;;;;24.41;31.31;98970.09;5075223;28;19952;-86
2023/05/18 08:02:12;;;;;;;;;;;;;;;25.39;27.60;98965.41;5056089;28;19927;-85
2023/05/18 08:04:38;;;;;;;;;;;;;;;25.14;28.52;98976.19;5074551;28;19959;-86
2023/05/18 08:07:04;;;;;;;;;;;;;;;25.02;29.06;98971.09;5074429;28;19963;-85
2023/05/18 08:09:30;;;;;;;;;;;;;;;22.21;33.13;98979.88;5072331;28;19924;-87
2023/05/18 08:11:56;;;;;;;;;;;;;;;22.87;31.82;98980.22;5079528;28;20406;-85
2023/05/18 08:14:22;;;;;;;;;;;;;;;23.29;31.26;98971.66;5080306;28;19920;-89
2023/05/18 08:16:48;;;;;;;;;;;;;;;23.99;30.05;98976.06;5071569;28;19924;-87
2023/05/18 08:19:15;;;;;;;;;;;;;;;24.10;29.99;98973.19;5061805;28;19920;-86
2023/05/18 08:21:41;;;;;;;;;;;;;;;23.20;31.31;98980.47;5074523;28;19951;-88
2023/05/18 08:24:08;;;;;;;;;;;;;;;21.47;34.62;98988.09;5077271;28;20011;-87
2023/05/18 08:26:34;;;;;;;;;;;;;;;21.89;33.29;98984.66;5070806;28;19985;-87
2023/05/18 08:29:02;;;;;;;;;;;;;;;21.54;34.04;98990.91;5066961;28;19916;-89
2023/05/18 08:31:28;;;;;;;;;;;;;;;21.66;34.31;98984.16;5060600;28;19974;-88
2023/05/18 08:33:54;;;;;;;;;;;;;;;20.54;35.52;98988.81;5093912;28;20318;-89
2023/05/18 08:36:20;;;;;;;;;;;;;;;22.94;31.60;98989.38;5076742;28;19966;-88
2023/05/18 08:38:46;;;;;;;;;;;;;;;24.50;29.44;98986.50;5075009;28;19929;-88
2023/05/18 08:41:22;;;;;;;;;;;;;;;24.74;28.83;98982.63;5095035;28;20015;-85
2023/05/18 08:43:52;;;;;;;;;;;;;;;24.99;27.91;98985.22;5080660;28;19959;-86
2023/05/18 08:46:18;;;;;;;;;;;;;;;24.78;28.62;98982.63;5073399;28;19916;-87
2023/05/18 08:48:45;;;;;;;;;;;;;;;24.26;29.62;98988.28;5074246;28;19946;-87
2023/05/18 08:51:13;;;;;;;;;;;;;;;24.55;29.30;98986.81;5073550;28;19927;-86
2023/05/18 08:53:40;;;;;;;;;;;;;;;24.67;30.19;98989.13;5073724;28;19954;-86
2023/05/18 08:56:08;;;;;;;;;;;;;;;24.16;30.62;98991.97;5073507;28;19921;-86
2023/05/18 08:58:35;;;;;;;;;;;;;;;23.57;31.00;98988.31;5074133;28;19923;-87
2023/05/18 09:01:02;;;;;;;;;;;;;;;21.40;34.48;99002.03;5073461;28;19924;-86
2023/05/18 09:03:29;;;;;;;;;;;;;;;21.64;34.86;98987.34;5073025;28;19924;-87
2023/05/18 09:05:56;;;;;;;;;;;;;;;21.13;35.95;98987.59;5071840;28;20019;-88
2023/05/18 09:08:22;;;;;;;;;;;;;;;21.74;34.72;98989.38;5067178;28;19920;-87
2023/05/18 09:10:49;;;;;;;;;;;;;;;22.05;33.08;98987.84;5060736;28;20422;-88
2023/05/18 09:13:17;;;;;;;;;;;;;;;21.75;34.20;98990.19;5065824;28;19947;-86
2023/05/18 09:15:43;;;;;;;;;;;;;;;21.41;35.30;98988.88;5064492;28;19920;-86
2023/05/18 09:18:09;;;;;;;;;;;;;;;20.87;37.23;98990.59;5061582;28;19927;-87
2023/05/18 09:20:35;;;;;;;;;;;;;;;22.35;33.26;98984.66;5056746;28;19920;-86
2023/05/18 09:23:01;;;;;;;;;;;;;;;21.03;35.29;98982.72;5069517;28;20347;-86
2023/05/18 09:25:30;;;;;;;;;;;;;;;20.32;37.99;98984.28;5071302;28;20083;-86
2023/05/18 09:27:56;;;;;;;;;;;;;;;22.06;33.90;98978.25;5063791;28;19947;-86
2023/05/18 09:30:23;;;;;;;;;;;;;;;22.51;33.28;98977.44;5073745;28;20368;-86
2023/05/18 09:32:51;;;;;;;;;;;;;;;20.91;39.29;98980.25;5047977;28;19960;-86
2023/05/18 09:35:17;;;;;;;;;;;;;;;19.74;39.89;98988.91;5069255;28;20415;-87
2023/05/18 09:37:43;;;;;;;;;;;;;;;19.81;40.97;98986.97;5059394;28;19921;-87
2023/05/18 09:40:09;;;;;;;;;;;;;;;20.33;38.71;98987.84;5057603;28;19932;-86
2023/05/18 09:42:39;;;;;;;;;;;;;;;21.09;37.10;98983.97;5069448;28;19966;-86
2023/05/18 09:45:19;;;;;;;;;;;;;;;21.40;36.91;98981.72;5073467;28;19920;-87
2023/05/18 09:47:45;;;;;;;;;;;;;;;22.55;34.78;98978.22;5070086;28;19926;-86
2023/05/18 09:50:11;;;;;;;;;;;;;;;22.18;33.84;98980.66;5082426;28;19967;-87
2023/05/18 09:52:42;;;;;;;;;;;;;;;19.62;39.63;98987.19;5073221;28;19958;-87
2023/05/18 09:55:09;;;;;;;;;;;;;;;22.27;34.21;98983.84;5088925;28;20007;-87
2023/05/18 09:57:45;;;;;;;;;;;;;;;22.84;33.34;98979.00;5093652;28;20360;-87
2023/05/18 10:00:12;;;;;;;;;;;;;;;23.40;33.00;98977.22;5094152;28;19923;-87
2023/05/18 10:02:44;;;;;;;;;;;;;;;23.59;31.65;98979.53;5073599;28;19978;-87
2023/05/18 10:05:19;;;;;;;;;;;;;;;24.60;30.29;98977.16;5073941;28;19952;-87
2023/05/18 10:07:45;;;;;;;;;;;;;;;24.84;29.53;98976.13;5088668;28;19943;-87
2023/05/18 10:10:11;;;;;;;;;;;;;;;24.69;29.81;98971.88;5076189;28;19978;-87
2023/05/18 10:12:38;;;;;;;;;;;;;;;25.04;29.61;98974.28;5057627;28;19923;-88
2023/05/18 10:15:07;;;;;;;;;;;;;;;23.51;31.31;98975.16;5068353;28;19946;-88
2023/05/18 10:17:36;;;;;;;;;;;;;;;24.13;31.79;98976.00;5076742;28;19923;-88
2023/05/18 10:20:04;;;;;;;;;;;;;;;24.99;29.11;98974.78;5080347;28;19916;-88
2023/05/18 10:22:33;;;;;;;;;;;;;;;23.90;33.01;98972.91;5077691;28;19927;-88
2023/05/18 10:25:02;;;;;;;;;;;;;;;24.42;31.30;98982.13;5062332;28;20364;-88
2023/05/18 10:27:28;;;;;;;;;;;;;;;25.04;30.21;98974.28;5070710;28;20296;-89
2023/05/18 10:29:58;;;;;;;;;;;;;;;25.33;30.45;98977.56;5075199;28;20011;-89
2023/05/18 10:32:24;;;;;;;;;;;;;;;24.42;29.23;98977.31;5062823;28;19982;-89
2023/05/18 10:34:55;;;;;;;;;;;;;;;24.69;30.46;98974.69;5091087;28;20299;-89
2023/05/18 10:37:21;;;;;;;;;;;;;;;24.08;31.08;98979.22;5077010;28;19917;-88
2023/05/18 10:39:49;;;;;;;;;;;;;;;24.71;30.84;98987.06;5095384;28;20015;-89
2023/05/18 10:42:16;;;;;;;;;;;;;;;25.32;30.24;98976.75;5088369;28;20392;-88
2023/05/18 10:44:43;;;;;;;;;;;;;;;25.52;29.96;98979.75;5077217;28;19959;-88
2023/05/18 10:47:10;;;;;;;;;;;;;;;25.99;28.07;98983.50;5073766;28;20283;-88
2023/05/18 10:49:36;;;;;;;;;;;;;;;25.68;28.26;98985.56;5059341;28;19930;-88
2023/05/18 10:52:02;;;;;;;;;;;;;;;25.45;29.67;98981.84;5056344;28;20388;-88
2023/05/18 10:54:29;;;;;;;;;;;;;;;24.54;29.78;98995.66;5056859;28;19924;-88
2023/05/18 10:56:55;;;;;;;;;;;;;;;24.25;30.59;98988.72;5057089;28;20331;-88
2023/05/18 10:59:24;;;;;;;;;;;;;;;24.02;31.56;98992.84;5056986;28;19917;-88
2023/05/18 11:01:52;;;;;;;;;;;;;;;24.39;30.73;98994.19;5057172;28;19917;-88
2023/05/18 11:04:25;;;;;;;;;;;;;;;24.56;29.81;98996.84;5055312;28;20015;-88
2023/05/18 11:06:58;;;;;;;;;;;;;;;25.11;29.22;98993.09;5058231;28;19921;-88
2023/05/18 11:09:25;;;;;;;;;;;;;;;25.12;29.82;98995.47;5050281;28;19925;-88
2023/05/18 11:11:58;;;;;;;;;;;;;;;25.30;29.11;98996.06;5037368;28;19925;-89
2023/05/18 11:14:28;;;;;;;;;;;;;;;24.51;29.51;98997.28;5053701;28;20392;-88
2023/05/18 11:17:17;;;;;;;;;;;;;;;24.48;30.46;99002.97;5049203;28;19927;-88
2023/05/18 11:22:44;;;;;;;;;;;;;;;22.88;33.01;99001.38;5053388;28;19932;-87
2023/05/18 11:25:23;;;;;;;;;;;;;;;24.24;31.05;98998.34;5058599;28;19921;-87
2023/05/18 11:27:52;;;;;;;;;;;;;;;24.69;30.29;98997.16;5046909;28;19917;-87
2023/05/18 11:30:28;;;;;;;;;;;;;;;24.65;30.37;98999.97;5054497;28;19928;-87
2023/05/18 11:33:15;;;;;;;;;;;;;;;24.87;29.57;99002.59;5040343;28;19917;-86
2023/05/18 11:36:01;;;;;;;;;;;;;;;24.59;30.74;99004.44;5069799;28;19926;-87
2023/05/18 11:38:46;;;;;;;;;;;;;;;24.33;30.29;99007.88;5058819;28;19955;-87
2023/05/18 11:41:25;;;;;;;;;;;;;;;24.60;31.16;99017.25;5063798;28;19925;-87
2023/05/18 11:44:10;;;;;;;;;;;;;;;25.29;28.83;99018.97;5038099;28;19921;-87
2023/05/18 11:46:36;;;;;;;;;;;;;;;25.05;31.32;99015.25;5048378;28;19940;-88
2023/05/18 11:49:03;;;;;;;;;;;;;;;25.37;30.24;99021.28;5056527;28;19927;-87
2023/05/18 11:51:30;;;;;;;;;;;;;;;25.54;30.39;99024.31;5071056;28;19948;-89
2023/05/18 11:53:57;;;;;;;;;;;;;;;25.78;30.95;99011.94;5067937;28;20299;-89
2023/05/18 11:56:24;;;;;;;;;;;;;;;26.18;30.04;99010.97;5066143;28;19923;-89
2023/05/18 11:59:13;;;;;;;;;;;;;;;26.83;26.47;99017.94;5072585;28;20345;-88
2023/05/18 12:01:40;;;;;;;;;;;;;;;25.61;29.31;99021.41;5076733;28;19928;-88
2023/05/18 12:04:06;;;;;;;;;;;;;;;25.67;30.73;99023.31;5069295;28;19920;-88
2023/05/18 12:06:32;;;;;;;;;;;;;;;26.07;29.09;99019.53;5072010;28;20292;-87
2023/05/18 12:08:59;;;;;;;;;;;;;;;25.87;29.69;99024.28;5062303;28;20299;-88
2023/05/18 12:11:25;;;;;;;;;;;;;;;25.87;29.91;99023.47;5057053;28;19925;-88
2023/05/18 12:13:53;;;;;;;;;;;;;;;26.22;30.76;99019.34;5051518;28;19921;-88
2023/05/18 12:16:20;;;;;;;;;;;;;;;26.50;29.06;99016.06;5061199;28;20367;-88
2023/05/18 12:18:49;;;;;;;;;;;;;;;26.58;28.71;99023.19;5062133;28;19924;-88
2023/05/18 12:21:22;;;;;;;;;;;;;;;26.67;29.71;99018.59;5066993;28;19928;-89
2023/05/18 12:23:48;;;;;;;;;;;;;;;26.57;28.32;99022.38;5071466;28;19963;-88
2023/05/18 12:26:16;;;;;;;;;;;;;;;26.33;28.52;99019.97;5069799;28;19921;-87
2023/05/18 12:28:42;;;;;;;;;;;;;;;26.01;29.27;99014.81;5068992;28;19990;-88
2023/05/18 12:31:09;;;;;;;;;;;;;;;25.80;29.73;99015.13;5071833;28;19917;-87
2023/05/18 12:33:35;;;;;;;;;;;;;;;25.65;30.17;99016.56;5072417;28;20395;-88
2023/05/18 12:36:01;;;;;;;;;;;;;;;25.39;30.03;99018.06;5067549;28;19928;-87
2023/05/18 12:38:27;;;;;;;;;;;;;;;25.14;31.25;99014.72;5072699;28;19921;-88
2023/05/18 12:40:55;;;;;;;;;;;;;;;24.51;32.85;99019.75;5072663;28;19931;-86
2023/05/18 12:43:24;;;;;;;;;;;;;;;22.75;37.36;99022.63;5073927;28;19912;-87
2023/05/18 12:45:50;;;;;;;;;;;;;;;22.34;37.14;99022.22;5068809;28;19924;-88
2023/05/18 12:48:16;;;;;;;;;;;;;;;22.97;34.52;99016.56;5073178;28;19970;-87
2023/05/18 12:50:46;;;;;;;;;;;;;;;24.31;33.18;99017.94;5073055;28;19916;-88
2023/05/18 12:53:12;;;;;;;;;;;;;;;25.14;31.58;99018.34;5072762;28;20008;-89